Time;durP1;ratioP1;P1;durP2;ratioP2;P2;SDS_P1;SDS_P2;PMS_P1;PMS_P2;Temp;Humidity;BMP_temperature;BMP_pressure;BME280_temperature;BME280_humidity;BME280_pressure;Samples;Min_cycle;Max_cycle;Signal;HPM_P1;HPM_P2
2023/05/27 00:00:58;;;;;;;14.65;5.90;;;12.30;99.90;;;;;;2103846;28;20039;-78
2023/05/27 00:01:59;;;;;;;18.80;6.18;;;12.30;99.90;;;;;;2098865;28;20132;-77
2023/05/27 00:03:03;;;;;;;19.83;6.38;;;12.30;99.90;;;;;;2104919;28;20032;-77
2023/05/27 00:04:03;;;;;;;15.18;6.05;;;12.30;99.90;;;;;;2121222;27;20168;-76
2023/05/27 00:05:04;;;;;;;15.77;5.65;;;12.20;99.90;;;;;;2113921;27;20077;-77
2023/05/27 00:06:05;;;;;;;13.50;5.88;;;12.20;99.90;;;;;;2114033;27;20024;-75
2023/05/27 00:07:06;;;;;;;16.15;5.75;;;12.20;99.90;;;;;;2096051;28;20028;-75
2023/05/27 00:08:07;;;;;;;16.67;5.97;;;12.20;99.90;;;;;;2101358;28;20111;-78
2023/05/27 00:09:07;;;;;;;18.17;6.25;;;12.20;99.90;;;;;;2104829;28;20062;-78
2023/05/27 00:10:08;;;;;;;14.25;6.30;;;12.10;99.90;;;;;;2104215;28;20035;-78
2023/05/27 00:11:09;;;;;;;14.40;5.45;;;12.10;99.90;;;;;;2121100;27;20026;-77
2023/05/27 00:12:09;;;;;;;16.17;5.70;;;12.10;99.90;;;;;;2104738;27;20032;-75
2023/05/27 00:13:10;;;;;;;14.32;5.50;;;12.10;99.90;;;;;;2096189;28;20059;-76
2023/05/27 00:14:10;;;;;;;14.73;5.68;;;12.10;99.90;;;;;;2111299;28;20023;-77
2023/05/27 00:15:11;;;;;;;14.70;5.70;;;12.00;99.90;;;;;;2120350;27;20042;-77
2023/05/27 00:16:12;;;;;;;15.50;5.93;;;12.10;99.90;;;;;;2122233;27;20041;-77
2023/05/27 00:17:13;;;;;;;16.30;6.40;;;12.00;99.90;;;;;;2120975;27;20072;-77
2023/05/27 00:18:15;;;;;;;15.70;5.95;;;12.00;99.90;;;;;;2114501;27;20398;-77
2023/05/27 00:19:17;;;;;;;15.05;5.80;;;12.00;99.90;;;;;;2113386;28;20037;-77
2023/05/27 00:20:17;;;;;;;14.30;6.07;;;12.00;99.90;;;;;;2112561;28;20039;-77
2023/05/27 00:21:18;;;;;;;16.80;6.38;;;12.00;99.90;;;;;;2103978;28;20260;-76
2023/05/27 00:22:19;;;;;;;15.50;6.07;;;12.00;99.90;;;;;;2096516;28;20047;-76
2023/05/27 00:23:20;;;;;;;14.27;5.80;;;11.90;99.90;;;;;;2111820;28;20012;-77
2023/05/27 00:24:21;;;;;;;12.63;5.78;;;11.90;99.90;;;;;;2113799;27;20055;-77
2023/05/27 00:25:22;;;;;;;13.63;5.78;;;11.90;99.90;;;;;;2121332;27;20739;-76
2023/05/27 00:26:23;;;;;;;16.52;6.35;;;11.90;99.90;;;;;;2094392;28;20047;-76
2023/05/27 00:27:26;;;;;;;15.60;5.57;;;11.90;99.90;;;;;;2096409;28;20012;-76
2023/05/27 00:28:28;;;;;;;15.75;5.85;;;11.90;99.90;;;;;;2120251;27;20054;-76
2023/05/27 00:29:29;;;;;;;15.90;6.10;;;11.90;99.90;;;;;;2104240;28;20032;-77
2023/05/27 00:30:30;;;;;;;16.83;6.70;;;11.90;99.90;;;;;;2111975;28;20023;-76
2023/05/27 00:31:31;;;;;;;17.15;6.00;;;11.80;99.90;;;;;;2101200;28;20278;-77
2023/05/27 00:32:31;;;;;;;16.17;6.60;;;11.90;99.90;;;;;;2089685;28;20040;-76
2023/05/27 00:33:32;;;;;;;12.35;5.68;;;11.80;99.90;;;;;;2103402;28;20028;-76
2023/05/27 00:34:35;;;;;;;14.13;6.07;;;11.80;99.90;;;;;;2096099;28;20058;-76
2023/05/27 00:35:36;;;;;;;13.90;5.95;;;11.80;99.90;;;;;;2104690;28;20032;-76
2023/05/27 00:36:36;;;;;;;13.45;6.20;;;11.80;99.90;;;;;;2107076;28;20854;-76
2023/05/27 00:37:37;;;;;;;15.43;6.15;;;11.80;99.90;;;;;;2101666;28;20384;-76
2023/05/27 00:38:38;;;;;;;18.50;6.20;;;11.80;99.90;;;;;;2120287;27;20041;-75
2023/05/27 00:39:38;;;;;;;16.67;6.22;;;11.70;99.90;;;;;;2113772;27;20039;-76
2023/05/27 00:40:40;;;;;;;11.93;5.95;;;11.70;99.90;;;;;;2095543;28;20060;-76
2023/05/27 00:41:47;;;;;;;16.70;6.50;;;11.70;99.90;;;;;;2095366;28;20040;-77
2023/05/27 00:42:47;;;;;;;15.00;6.07;;;11.70;99.90;;;;;;2108317;28;20402;-76
2023/05/27 00:43:48;;;;;;;16.15;6.32;;;11.70;99.90;;;;;;2111803;28;20116;-76
2023/05/27 00:44:48;;;;;;;19.08;6.75;;;11.70;99.90;;;;;;2104537;28;20474;-77
2023/05/27 00:45:49;;;;;;;16.02;6.43;;;11.70;99.90;;;;;;2113341;28;20052;-76
2023/05/27 00:46:49;;;;;;;16.23;6.32;;;11.70;99.90;;;;;;2100647;28;20480;-77
2023/05/27 00:47:50;;;;;;;14.85;6.00;;;11.70;99.90;;;;;;2087408;28;20120;-77
2023/05/27 00:48:51;;;;;;;15.50;6.25;;;11.70;99.90;;;;;;2110939;28;20028;-77
2023/05/27 00:49:53;;;;;;;16.00;6.05;;;11.70;99.90;;;;;;2096281;28;20130;-77
2023/05/27 00:50:53;;;;;;;17.05;6.47;;;11.70;99.90;;;;;;2089612;28;20021;-77
2023/05/27 00:51:54;;;;;;;14.10;6.20;;;11.60;99.90;;;;;;2090642;28;20036;-77
2023/05/27 00:52:58;;;;;;;16.48;6.65;;;11.70;99.90;;;;;;2105532;28;20126;-77
2023/05/27 00:53:58;;;;;;;13.82;6.22;;;11.60;99.90;;;;;;2104013;28;20024;-77
2023/05/27 00:54:59;;;;;;;15.60;6.28;;;11.60;99.90;;;;;;2111894;28;20029;-77
2023/05/27 00:56:01;;;;;;;14.77;6.55;;;11.60;99.90;;;;;;2113448;28;20032;-77
2023/05/27 00:57:02;;;;;;;13.70;5.88;;;11.60;99.90;;;;;;2097193;28;20032;-77
2023/05/27 00:58:04;;;;;;;14.55;6.30;;;11.60;99.90;;;;;;2104522;28;20164;-78
2023/05/27 00:59:05;;;;;;;15.57;6.65;;;11.50;99.90;;;;;;2121057;27;20526;-77
2023/05/27 01:00:09;;;;;;;16.02;6.30;;;11.50;99.90;;;;;;2113365;28;20054;-77
2023/05/27 01:01:10;;;;;;;16.92;5.97;;;11.50;99.90;;;;;;2121074;27;20023;-78
2023/05/27 01:02:11;;;;;;;15.38;6.40;;;11.50;99.90;;;;;;2095467;28;20526;-77
2023/05/27 01:03:12;;;;;;;14.02;6.30;;;11.50;99.90;;;;;;2103158;28;20219;-77
2023/05/27 01:04:13;;;;;;;15.60;6.30;;;11.50;99.90;;;;;;2105226;28;20035;-77
2023/05/27 01:05:16;;;;;;;19.15;6.22;;;11.40;99.90;;;;;;2114762;27;20043;-78
2023/05/27 01:06:31;;;;;;;14.32;6.55;;;11.40;99.90;;;;;;2111883;28;20483;-75
2023/05/27 01:07:53;;;;;;;15.20;6.20;;;11.40;99.90;;;;;;2097951;28;20054;-77
2023/05/27 01:09:10;;;;;;;12.77;5.88;;;11.40;99.90;;;;;;2098481;28;20067;-76
2023/05/27 01:10:23;;;;;;;14.85;6.57;;;11.40;99.90;;;;;;2087675;28;20456;-75
2023/05/27 01:11:34;;;;;;;16.95;6.75;;;11.40;99.90;;;;;;2096895;27;20094;-75
2023/05/27 01:12:59;;;;;;;16.95;6.68;;;11.30;99.90;;;;;;2110679;28;20022;-74
2023/05/27 01:14:07;;;;;;;15.80;5.97;;;11.30;99.90;;;;;;2095273;28;20091;-75
2023/05/27 01:15:09;;;;;;;16.77;6.65;;;11.30;99.90;;;;;;2102631;28;20031;-75
2023/05/27 01:16:12;;;;;;;17.30;6.93;;;11.30;99.90;;;;;;2111526;28;20031;-77
2023/05/27 01:17:15;;;;;;;14.00;6.47;;;11.20;99.90;;;;;;2102236;28;20024;-75
2023/05/27 01:18:16;;;;;;;19.05;7.07;;;11.30;99.90;;;;;;2104178;28;20522;-76
2023/05/27 01:19:32;;;;;;;16.80;6.78;;;11.20;99.90;;;;;;2097777;28;20033;-76
2023/05/27 01:20:33;;;;;;;15.05;6.43;;;11.30;99.90;;;;;;2091662;28;20492;-77
2023/05/27 01:21:36;;;;;;;15.45;6.45;;;11.30;99.90;;;;;;2099211;28;20545;-77
2023/05/27 01:22:41;;;;;;;15.23;6.70;;;11.20;99.90;;;;;;2102412;28;20469;-77
2023/05/27 01:23:42;;;;;;;15.88;6.35;;;11.20;99.90;;;;;;2104842;28;20134;-77
2023/05/27 01:24:43;;;;;;;16.85;6.85;;;11.30;99.90;;;;;;2098111;28;20039;-77
2023/05/27 01:25:43;;;;;;;14.45;6.93;;;11.20;99.90;;;;;;2106003;28;20028;-77
2023/05/27 01:26:44;;;;;;;15.88;6.55;;;11.30;99.90;;;;;;2104865;28;20031;-76
2023/05/27 01:27:44;;;;;;;20.95;7.00;;;11.20;99.90;;;;;;2094477;28;20033;-77
2023/05/27 01:28:45;;;;;;;17.13;6.90;;;11.30;99.90;;;;;;2094570;28;20024;-77
2023/05/27 01:29:46;;;;;;;13.70;6.80;;;11.20;99.90;;;;;;2104149;28;20106;-78
2023/05/27 01:30:47;;;;;;;18.80;7.18;;;11.20;99.90;;;;;;2116520;27;20027;-77
2023/05/27 01:32:19;;;;;;;15.27;7.20;;;11.20;99.90;;;;;;2119017;27;20031;-77
2023/05/27 01:33:24;;;;;;;19.35;7.25;;;11.20;99.90;;;;;;2080231;28;20580;-77
2023/05/27 01:34:36;;;;;;;15.60;7.18;;;11.20;99.90;;;;;;2104426;28;20048;-77
2023/05/27 01:35:49;;;;;;;16.83;7.00;;;11.20;99.90;;;;;;2104458;28;20113;-77
2023/05/27 01:36:55;;;;;;;16.95;7.22;;;11.20;99.90;;;;;;2098051;28;20120;-77
2023/05/27 01:37:58;;;;;;;16.35;7.10;;;11.20;99.90;;;;;;2100808;28;20036;-77
2023/05/27 01:39:01;;;;;;;17.10;7.00;;;11.20;99.90;;;;;;2111608;28;20050;-77
2023/05/27 01:40:06;;;;;;;16.38;7.18;;;11.10;99.90;;;;;;2104112;28;20027;-77
2023/05/27 01:41:07;;;;;;;14.27;6.28;;;11.10;99.90;;;;;;2111841;28;20020;-77
2023/05/27 01:42:09;;;;;;;14.90;6.45;;;11.10;99.90;;;;;;2078786;28;20074;-77
2023/05/27 01:43:10;;;;;;;17.55;7.00;;;11.10;99.90;;;;;;2104385;28;20494;-77
2023/05/27 01:44:17;;;;;;;17.88;6.32;;;11.10;99.90;;;;;;2112836;28;20023;-77
2023/05/27 01:45:17;;;;;;;15.10;7.10;;;11.10;99.90;;;;;;2104266;28;20034;-77
2023/05/27 01:46:18;;;;;;;17.25;7.50;;;11.00;99.90;;;;;;2092662;28;20035;-77
2023/05/27 01:47:19;;;;;;;14.75;6.32;;;11.10;99.90;;;;;;2095122;28;20032;-77
2023/05/27 01:48:19;;;;;;;13.95;6.70;;;11.00;99.90;;;;;;2111173;28;20325;-77
2023/05/27 01:49:20;;;;;;;15.63;6.40;;;11.00;99.90;;;;;;2112936;28;20115;-77
2023/05/27 01:50:20;;;;;;;13.88;6.50;;;11.10;99.90;;;;;;2120719;27;20031;-77
2023/05/27 01:51:22;;;;;;;15.93;6.82;;;11.00;99.90;;;;;;2110105;28;20054;-77
2023/05/27 01:52:23;;;;;;;15.27;7.03;;;11.00;99.90;;;;;;2095206;28;20095;-77
2023/05/27 01:53:23;;;;;;;17.42;6.88;;;11.00;99.90;;;;;;2110510;28;20034;-77
2023/05/27 01:54:24;;;;;;;16.75;7.05;;;10.90;99.90;;;;;;2113218;28;20125;-77
2023/05/27 01:55:25;;;;;;;16.20;6.63;;;10.90;99.90;;;;;;2103323;28;20028;-77
2023/05/27 01:56:26;;;;;;;18.25;7.70;;;10.90;99.90;;;;;;2098182;28;20043;-77
2023/05/27 01:57:29;;;;;;;18.13;7.95;;;10.90;99.90;;;;;;2087067;28;20040;-77
2023/05/27 01:58:30;;;;;;;17.10;6.95;;;10.90;99.90;;;;;;2102665;28;20024;-77
2023/05/27 01:59:30;;;;;;;16.38;6.85;;;10.80;99.90;;;;;;2095321;28;20067;-77
2023/05/27 02:00:31;;;;;;;15.63;7.25;;;10.80;99.90;;;;;;2103274;28;20050;-76
2023/05/27 02:01:33;;;;;;;17.58;7.57;;;10.80;99.90;;;;;;2101192;28;20066;-77
2023/05/27 02:02:34;;;;;;;18.80;7.65;;;10.80;99.90;;;;;;2103416;28;20032;-77
2023/05/27 02:03:35;;;;;;;20.73;8.40;;;10.80;99.90;;;;;;2103295;28;20594;-77
2023/05/27 02:04:37;;;;;;;19.17;7.57;;;10.80;99.90;;;;;;2103463;28;20016;-77
2023/05/27 02:05:38;;;;;;;16.77;7.50;;;10.80;99.90;;;;;;2103073;28;20079;-76
2023/05/27 02:06:40;;;;;;;16.05;7.57;;;10.70;99.90;;;;;;2093016;28;20036;-77
2023/05/27 02:07:40;;;;;;;16.98;7.57;;;10.70;99.90;;;;;;2102956;28;20020;-77
2023/05/27 02:08:41;;;;;;;16.02;7.63;;;10.70;99.90;;;;;;2109902;28;20555;-77
2023/05/27 02:09:43;;;;;;;16.38;6.80;;;10.70;99.90;;;;;;2102908;28;20063;-76
2023/05/27 02:10:43;;;;;;;14.20;7.22;;;10.70;99.90;;;;;;2094871;28;20135;-76
2023/05/27 02:11:44;;;;;;;16.45;7.40;;;10.70;99.90;;;;;;2093908;28;20059;-77
2023/05/27 02:12:44;;;;;;;15.13;7.45;;;10.70;99.90;;;;;;2103605;28;20035;-77
2023/05/27 02:13:46;;;;;;;19.52;7.70;;;10.70;99.90;;;;;;2103087;28;20165;-77
2023/05/27 02:14:48;;;;;;;16.90;7.03;;;10.70;99.90;;;;;;2103293;28;20020;-77
2023/05/27 02:15:48;;;;;;;14.57;7.30;;;10.70;99.90;;;;;;2103098;28;20090;-78
2023/05/27 02:16:49;;;;;;;15.98;7.20;;;10.70;99.90;;;;;;2101576;28;20028;-77
2023/05/27 02:17:55;;;;;;;15.77;6.97;;;10.60;99.90;;;;;;2103246;28;20032;-72
2023/05/27 02:18:56;;;;;;;15.55;7.18;;;10.60;99.90;;;;;;2087556;28;20021;-71
2023/05/27 02:19:57;;;;;;;15.05;7.15;;;10.60;99.90;;;;;;2102554;28;20032;-71
2023/05/27 02:20:57;;;;;;;13.10;7.13;;;10.50;99.90;;;;;;2094680;28;20036;-74
2023/05/27 02:21:58;;;;;;;16.38;7.18;;;10.50;99.90;;;;;;2093226;28;20349;-73
2023/05/27 02:23:00;;;;;;;16.33;7.70;;;10.50;99.90;;;;;;2103424;28;20027;-73
2023/05/27 02:24:01;;;;;;;16.00;7.45;;;10.50;99.90;;;;;;2095024;28;20040;-73
2023/05/27 02:25:02;;;;;;;18.50;7.32;;;10.50;99.90;;;;;;2086803;28;20033;-73
2023/05/27 02:26:03;;;;;;;15.52;7.07;;;10.50;99.90;;;;;;2095587;28;20032;-73
2023/05/27 02:27:03;;;;;;;15.63;7.13;;;10.40;99.90;;;;;;2104710;28;20234;-73
2023/05/27 02:28:04;;;;;;;16.95;7.47;;;10.40;99.90;;;;;;2109586;28;20031;-72
2023/05/27 02:29:05;;;;;;;15.23;7.10;;;10.40;99.90;;;;;;2097955;28;20033;-72
2023/05/27 02:30:07;;;;;;;15.45;7.10;;;10.40;99.90;;;;;;2097382;28;20080;-72
2023/05/27 02:31:08;;;;;;;16.13;7.43;;;10.40;99.90;;;;;;2116739;28;20019;-72
2023/05/27 02:32:11;;;;;;;17.85;7.18;;;10.30;99.90;;;;;;2098027;28;20035;-71
2023/05/27 02:33:12;;;;;;;17.55;7.53;;;10.30;99.90;;;;;;2098233;28;20039;-72
2023/05/27 02:34:13;;;;;;;15.50;7.30;;;10.30;99.90;;;;;;2097072;28;20524;-72
2023/05/27 02:35:15;;;;;;;15.93;7.10;;;10.30;99.90;;;;;;2103051;28;20032;-72
2023/05/27 02:36:15;;;;;;;15.93;7.38;;;10.30;99.90;;;;;;2094528;28;20160;-72
2023/05/27 02:37:17;;;;;;;16.75;7.40;;;10.30;99.90;;;;;;2094760;28;20020;-72
2023/05/27 02:38:17;;;;;;;16.08;7.38;;;10.30;99.90;;;;;;2094867;28;20086;-72
2023/05/27 02:39:18;;;;;;;17.33;7.93;;;10.30;99.90;;;;;;2104964;28;20533;-72
2023/05/27 02:40:25;;;;;;;16.98;7.97;;;10.30;99.90;;;;;;2113428;28;20106;-73
2023/05/27 02:41:28;;;;;;;17.57;7.57;;;10.20;99.90;;;;;;2092758;28;20443;-72
2023/05/27 02:42:29;;;;;;;17.48;7.35;;;10.20;99.90;;;;;;2088688;28;20322;-72
2023/05/27 02:43:29;;;;;;;15.82;7.15;;;10.20;99.90;;;;;;2096141;28;20021;-73
2023/05/27 02:44:30;;;;;;;18.27;7.65;;;10.20;99.90;;;;;;2096231;28;20086;-72
2023/05/27 02:45:31;;;;;;;19.50;8.32;;;10.20;99.90;;;;;;2096339;28;20040;-72
2023/05/27 02:46:32;;;;;;;15.55;7.38;;;10.20;99.90;;;;;;2094457;28;20028;-73
2023/05/27 02:47:32;;;;;;;19.92;8.13;;;10.10;99.90;;;;;;2096677;28;20341;-73
2023/05/27 02:48:33;;;;;;;17.35;8.30;;;10.10;99.90;;;;;;2104701;28;20040;-73
2023/05/27 02:49:33;;;;;;;18.63;7.85;;;10.10;99.90;;;;;;2096302;28;20029;-73
2023/05/27 02:50:34;;;;;;;16.77;8.00;;;10.10;99.90;;;;;;2096412;28;20028;-72
2023/05/27 02:51:35;;;;;;;19.02;7.55;;;10.10;99.90;;;;;;2105676;28;20028;-73
2023/05/27 02:52:36;;;;;;;14.43;7.25;;;10.10;99.90;;;;;;2112738;28;20035;-71
2023/05/27 02:53:36;;;;;;;18.30;7.68;;;10.10;99.90;;;;;;2104592;28;20036;-72
2023/05/27 02:54:37;;;;;;;17.73;7.75;;;10.10;99.90;;;;;;2096510;28;20021;-72
2023/05/27 02:55:38;;;;;;;21.50;8.38;;;10.10;99.90;;;;;;2104853;28;20033;-72
2023/05/27 02:56:38;;;;;;;17.75;7.57;;;10.10;99.90;;;;;;2105935;28;20119;-72
2023/05/27 02:57:39;;;;;;;17.98;8.23;;;10.10;99.90;;;;;;2103554;28;20495;-71
2023/05/27 02:58:40;;;;;;;16.33;7.35;;;10.10;99.90;;;;;;2096272;28;20503;-71
2023/05/27 02:59:40;;;;;;;21.60;7.57;;;10.10;99.90;;;;;;2104501;28;20048;-72
2023/05/27 03:00:41;;;;;;;18.13;7.80;;;10.00;99.90;;;;;;2096400;28;20029;-72
2023/05/27 03:01:42;;;;;;;17.80;7.47;;;10.00;99.90;;;;;;2102850;28;20077;-72
2023/05/27 03:02:43;;;;;;;17.60;7.40;;;10.00;99.90;;;;;;2113652;28;20050;-72
2023/05/27 03:03:44;;;;;;;20.02;8.10;;;10.00;99.90;;;;;;2113934;28;20654;-72
2023/05/27 03:04:44;;;;;;;17.85;7.55;;;10.00;99.90;;;;;;2113798;28;20486;-72
2023/05/27 03:05:45;;;;;;;15.27;7.53;;;10.00;99.90;;;;;;2104356;28;20080;-72
2023/05/27 03:06:47;;;;;;;16.90;7.50;;;10.00;99.90;;;;;;2102891;28;20460;-72
2023/05/27 03:07:47;;;;;;;17.88;7.43;;;10.00;99.90;;;;;;2101418;28;20060;-72
2023/05/27 03:08:48;;;;;;;17.73;7.82;;;10.00;99.90;;;;;;2087995;28;20021;-73
2023/05/27 03:09:49;;;;;;;16.98;7.55;;;10.00;99.90;;;;;;2096268;28;20037;-74
2023/05/27 03:10:50;;;;;;;21.25;7.95;;;10.00;99.90;;;;;;2104455;28;20561;-72
2023/05/27 03:11:50;;;;;;;17.50;7.75;;;10.00;99.90;;;;;;2099110;28;20438;-73
2023/05/27 03:12:54;;;;;;;20.00;7.97;;;10.00;99.90;;;;;;2096949;28;20082;-73
2023/05/27 03:13:57;;;;;;;14.38;7.15;;;10.00;99.90;;;;;;2097238;28;20811;-72
2023/05/27 03:14:59;;;;;;;15.60;7.40;;;10.00;99.90;;;;;;2096246;28;20123;-72
2023/05/27 03:16:01;;;;;;;20.85;7.80;;;10.00;99.90;;;;;;2096276;28;20074;-72
2023/05/27 03:17:02;;;;;;;22.50;7.75;;;10.00;99.90;;;;;;2096335;28;20485;-73
2023/05/27 03:18:03;;;;;;;20.30;8.00;;;10.00;99.90;;;;;;2112911;28;20063;-72
2023/05/27 03:19:05;;;;;;;17.98;8.07;;;10.00;99.90;;;;;;2104609;28;20028;-72
2023/05/27 03:20:07;;;;;;;19.52;8.52;;;10.00;99.90;;;;;;2096054;28;20488;-72
2023/05/27 03:21:08;;;;;;;15.45;7.50;;;10.10;99.90;;;;;;2096135;28;20028;-72
2023/05/27 03:22:09;;;;;;;14.65;7.32;;;10.10;99.90;;;;;;2086903;28;20033;-73
2023/05/27 03:23:09;;;;;;;17.55;7.85;;;10.10;99.90;;;;;;2095771;28;20058;-72
2023/05/27 03:24:10;;;;;;;16.48;7.28;;;10.10;99.90;;;;;;2104547;28;20077;-72
2023/05/27 03:25:11;;;;;;;18.25;7.53;;;10.00;99.90;;;;;;2104329;28;20031;-73
2023/05/27 03:26:13;;;;;;;16.80;7.40;;;10.00;99.90;;;;;;2096072;28;20403;-72
2023/05/27 03:27:13;;;;;;;20.08;7.35;;;10.00;99.90;;;;;;2094561;28;20028;-73
2023/05/27 03:28:17;;;;;;;15.57;7.57;;;10.10;99.90;;;;;;2096144;28;20141;-73
2023/05/27 03:29:18;;;;;;;18.30;7.28;;;10.10;99.90;;;;;;2103872;28;20068;-72
2023/05/27 03:30:19;;;;;;;15.45;7.82;;;10.00;99.90;;;;;;2113502;28;20097;-72
2023/05/27 03:31:22;;;;;;;16.13;7.38;;;10.10;99.90;;;;;;2102613;28;20028;-72
2023/05/27 03:32:35;;;;;;;15.10;7.57;;;10.10;99.90;;;;;;2087965;28;20047;-72
2023/05/27 03:33:37;;;;;;;19.77;7.43;;;10.10;99.90;;;;;;2089687;28;20056;-72
2023/05/27 03:34:38;;;;;;;18.02;7.10;;;10.10;99.90;;;;;;2096070;28;20028;-72
2023/05/27 03:35:39;;;;;;;17.88;7.93;;;10.10;99.90;;;;;;2099040;28;20047;-72
2023/05/27 03:36:39;;;;;;;17.50;7.70;;;10.10;99.90;;;;;;2089924;28;20071;-72
2023/05/27 03:37:40;;;;;;;18.15;7.97;;;10.10;99.90;;;;;;2096752;28;20032;-72
2023/05/27 03:38:42;;;;;;;19.35;7.40;;;10.10;99.90;;;;;;2087908;28;20052;-72
2023/05/27 03:39:43;;;;;;;16.48;7.60;;;10.10;99.90;;;;;;2087704;28;20396;-72
2023/05/27 03:40:44;;;;;;;17.23;7.30;;;10.10;99.90;;;;;;2095594;28;20261;-72
2023/05/27 03:41:45;;;;;;;17.33;7.60;;;10.10;99.90;;;;;;2094200;28;20020;-72
2023/05/27 03:42:47;;;;;;;16.30;7.60;;;10.10;99.90;;;;;;2089513;28;20056;-71
2023/05/27 03:43:52;;;;;;;18.13;7.88;;;10.10;99.90;;;;;;2096432;28;20020;-72
2023/05/27 03:44:55;;;;;;;16.92;7.05;;;10.10;99.90;;;;;;2096343;28;20083;-72
2023/05/27 03:45:55;;;;;;;16.20;6.95;;;10.10;99.90;;;;;;2095843;28;20033;-72
2023/05/27 03:46:56;;;;;;;18.08;7.60;;;10.10;99.90;;;;;;2094090;28;20032;-72
2023/05/27 03:47:56;;;;;;;16.88;7.72;;;10.20;99.90;;;;;;2104246;28;20036;-71
2023/05/27 03:48:57;;;;;;;19.33;7.70;;;10.20;99.90;;;;;;2104238;28;20024;-71
2023/05/27 03:49:58;;;;;;;18.63;8.00;;;10.20;99.90;;;;;;2094840;28;20040;-71
2023/05/27 03:50:58;;;;;;;16.17;7.38;;;10.20;99.90;;;;;;2095425;28;20119;-71
2023/05/27 03:51:59;;;;;;;18.60;7.80;;;10.20;99.90;;;;;;2099841;28;20043;-71
2023/05/27 03:53:04;;;;;;;14.70;6.97;;;10.20;99.90;;;;;;2113445;28;20032;-71
2023/05/27 03:54:04;;;;;;;15.88;7.55;;;10.20;99.90;;;;;;2113224;28;20069;-71
2023/05/27 03:55:06;;;;;;;14.35;7.40;;;10.20;99.90;;;;;;2113717;28;20458;-72
2023/05/27 03:56:08;;;;;;;16.27;7.78;;;10.30;99.90;;;;;;2096052;28;20047;-72
2023/05/27 03:57:09;;;;;;;18.98;7.47;;;10.30;99.90;;;;;;2093993;28;20032;-71
2023/05/27 03:58:13;;;;;;;18.92;7.32;;;10.30;99.90;;;;;;2094943;28;20085;-71
2023/05/27 03:59:14;;;;;;;17.45;7.22;;;10.30;99.90;;;;;;2096174;28;20028;-72
2023/05/27 04:00:16;;;;;;;15.70;7.47;;;10.30;99.90;;;;;;2103905;28;20032;-72
2023/05/27 04:01:23;;;;;;;16.83;7.10;;;10.40;99.90;;;;;;2096501;28;20072;-72
2023/05/27 04:02:23;;;;;;;16.27;7.57;;;10.40;99.90;;;;;;2113555;28;20461;-72
2023/05/27 04:03:26;;;;;;;18.40;7.25;;;10.50;99.90;;;;;;2104120;28;20020;-71
2023/05/27 04:04:27;;;;;;;16.40;7.78;;;10.50;99.90;;;;;;2095614;28;20655;-72
2023/05/27 04:05:27;;;;;;;22.05;8.02;;;10.50;99.90;;;;;;2087330;28;20033;-72
2023/05/27 04:06:28;;;;;;;19.10;7.80;;;10.60;99.90;;;;;;2085513;28;20781;-72
2023/05/27 04:07:28;;;;;;;15.73;7.57;;;10.70;99.90;;;;;;2104342;28;20820;-72
2023/05/27 04:08:29;;;;;;;17.27;7.25;;;10.80;99.90;;;;;;2110300;28;20123;-71
2023/05/27 04:09:29;;;;;;;14.13;7.18;;;11.00;99.90;;;;;;2104305;28;20053;-72
2023/05/27 04:10:30;;;;;;;18.20;7.30;;;11.20;99.90;;;;;;2104130;28;20513;-72
2023/05/27 04:11:31;;;;;;;17.70;7.03;;;11.50;99.90;;;;;;2102442;28;20036;-72
2023/05/27 04:12:31;;;;;;;16.80;6.88;;;11.70;99.90;;;;;;2104271;28;20032;-71
2023/05/27 04:13:32;;;;;;;15.20;7.00;;;12.00;99.90;;;;;;2103896;28;20715;-72
2023/05/27 04:14:33;;;;;;;15.40;6.72;;;12.20;99.90;;;;;;2104106;28;20050;-72
2023/05/27 04:15:34;;;;;;;17.08;6.85;;;12.40;99.90;;;;;;2113501;28;20028;-72
2023/05/27 04:16:35;;;;;;;16.67;6.95;;;12.70;99.90;;;;;;2099473;28;20509;-72
2023/05/27 04:17:36;;;;;;;18.90;6.80;;;12.90;99.90;;;;;;2090122;28;20021;-72
2023/05/27 04:18:37;;;;;;;14.07;6.70;;;13.00;99.90;;;;;;2095424;28;20040;-72
2023/05/27 04:19:37;;;;;;;15.48;6.60;;;13.20;99.90;;;;;;2095758;28;20037;-72
2023/05/27 04:20:40;;;;;;;15.60;6.55;;;13.40;99.90;;;;;;2094655;28;20035;-72
2023/05/27 04:21:41;;;;;;;14.65;6.28;;;13.70;99.90;;;;;;2094053;28;20032;-72
2023/05/27 04:22:43;;;;;;;13.18;6.30;;;13.80;99.90;;;;;;2095506;28;20506;-72
2023/05/27 04:23:44;;;;;;;13.63;5.90;;;14.00;99.90;;;;;;2103485;28;20028;-72
2023/05/27 04:24:45;;;;;;;15.85;6.80;;;14.20;99.90;;;;;;2103369;28;20067;-73
2023/05/27 04:25:48;;;;;;;15.80;6.07;;;14.30;99.90;;;;;;2095590;28;20046;-73
2023/05/27 04:26:49;;;;;;;14.23;6.32;;;14.50;99.90;;;;;;2093519;28;20024;-73
2023/05/27 04:27:51;;;;;;;14.43;6.43;;;14.60;99.90;;;;;;2095345;28;20025;-72
2023/05/27 04:28:52;;;;;;;13.05;6.22;;;14.70;99.90;;;;;;2095432;28;20593;-71
2023/05/27 04:29:53;;;;;;;13.27;6.35;;;14.80;99.90;;;;;;2095769;28;20025;-72
2023/05/27 04:30:54;;;;;;;15.80;6.55;;;14.90;99.90;;;;;;2095469;28;20564;-72
2023/05/27 04:32:12;;;;;;;14.40;6.20;;;15.00;99.90;;;;;;2104217;28;20028;-72
2023/05/27 04:33:17;;;;;;;13.45;6.25;;;15.10;99.90;;;;;;2096015;28;20424;-72
2023/05/27 04:34:18;;;;;;;14.05;6.43;;;15.30;99.90;;;;;;2096103;28;20107;-72
2023/05/27 04:35:21;;;;;;;12.57;6.28;;;15.30;99.90;;;;;;2104052;28;20053;-72
2023/05/27 04:36:25;;;;;;;13.82;6.60;;;15.40;99.90;;;;;;2093647;28;20039;-72
2023/05/27 04:37:47;;;;;;;14.63;6.78;;;15.40;99.90;;;;;;2096283;28;20033;-72
2023/05/27 04:38:50;;;;;;;16.20;6.55;;;15.50;99.90;;;;;;2095608;28;20123;-72
2023/05/27 04:39:52;;;;;;;14.20;6.60;;;15.50;99.90;;;;;;2095682;28;20024;-73
2023/05/27 04:40:54;;;;;;;14.55;6.28;;;15.50;99.90;;;;;;2095743;28;20025;-72
2023/05/27 04:42:06;;;;;;;13.98;6.35;;;15.60;99.90;;;;;;2095484;28;20031;-72
2023/05/27 04:43:07;;;;;;;14.70;6.20;;;15.70;99.90;;;;;;2103892;28;20020;-72
2023/05/27 04:44:08;;;;;;;15.48;6.60;;;15.90;99.90;;;;;;2103913;28;20035;-72
2023/05/27 04:45:13;;;;;;;14.07;6.47;;;16.00;99.90;;;;;;2103977;28;20628;-72
2023/05/27 04:46:14;;;;;;;13.43;6.18;;;16.00;99.90;;;;;;2095462;28;20063;-72
2023/05/27 04:47:16;;;;;;;15.30;6.53;;;16.10;99.90;;;;;;2079337;28;20114;-73
2023/05/27 04:48:17;;;;;;;13.98;6.43;;;16.10;99.90;;;;;;2086666;28;20086;-73
2023/05/27 04:49:19;;;;;;;14.73;6.85;;;16.10;99.90;;;;;;2095707;28;20028;-73
2023/05/27 04:50:20;;;;;;;14.45;6.47;;;16.10;99.90;;;;;;2095244;28;20060;-73
2023/05/27 04:51:21;;;;;;;16.08;6.50;;;16.10;99.90;;;;;;2102036;28;20039;-73
2023/05/27 04:52:23;;;;;;;13.80;6.10;;;16.10;99.90;;;;;;2103908;28;20078;-73
2023/05/27 04:53:24;;;;;;;13.40;6.32;;;16.10;99.90;;;;;;2095499;28;20063;-73
2023/05/27 04:54:25;;;;;;;13.75;6.25;;;16.10;99.90;;;;;;2103847;28;20028;-72
2023/05/27 04:55:25;;;;;;;14.85;6.78;;;16.10;99.90;;;;;;2095416;28;20487;-74
2023/05/27 04:56:27;;;;;;;14.98;6.47;;;16.20;99.90;;;;;;2076774;28;20018;-73
2023/05/27 04:57:28;;;;;;;13.93;6.22;;;16.20;99.90;;;;;;2087559;28;20036;-71
2023/05/27 04:58:29;;;;;;;14.70;6.32;;;16.30;99.90;;;;;;2095185;28;20032;-72
2023/05/27 04:59:45;;;;;;;14.63;6.78;;;16.40;99.90;;;;;;2094973;28;20107;-72
2023/05/27 05:00:49;;;;;;;15.80;6.95;;;16.50;99.90;;;;;;2097379;28;20032;-72
2023/05/27 05:02:27;;;;;;;15.93;6.80;;;16.60;99.90;;;;;;2093926;28;20031;-71
2023/05/27 05:03:36;;;;;;;14.40;6.15;;;16.60;99.90;;;;;;2087372;28;20497;-72
2023/05/27 05:04:38;;;;;;;13.70;6.00;;;16.70;99.90;;;;;;2097570;28;20655;-71
2023/05/27 05:05:39;;;;;;;14.77;6.60;;;16.70;99.90;;;;;;2112123;28;20043;-70
2023/05/27 05:06:40;;;;;;;14.18;6.47;;;16.70;99.90;;;;;;2100949;28;20039;-73
2023/05/27 05:07:43;;;;;;;13.52;6.50;;;16.70;99.90;;;;;;2098005;28;20028;-72
2023/05/27 05:08:45;;;;;;;13.75;6.40;;;16.70;99.90;;;;;;2095867;28;20048;-73
2023/05/27 05:09:47;;;;;;;18.77;6.50;;;16.70;99.90;;;;;;2103328;28;20217;-73
2023/05/27 05:10:55;;;;;;;16.15;6.53;;;16.70;99.90;;;;;;2096592;28;20538;-73
2023/05/27 05:11:55;;;;;;;14.93;7.03;;;16.80;99.90;;;;;;2101233;28;20038;-73
2023/05/27 05:12:56;;;;;;;16.38;6.70;;;16.80;99.90;;;;;;2111904;28;20121;-73
2023/05/27 05:13:57;;;;;;;18.58;7.00;;;16.90;99.90;;;;;;2113052;28;20067;-73
2023/05/27 05:14:58;;;;;;;14.35;6.45;;;16.90;99.90;;;;;;2112145;28;20028;-73
2023/05/27 05:15:58;;;;;;;14.95;6.68;;;16.90;99.90;;;;;;2103523;28;20032;-73
2023/05/27 05:17:00;;;;;;;13.52;6.03;;;16.90;99.90;;;;;;2101132;28;20035;-72
2023/05/27 05:18:00;;;;;;;15.50;6.22;;;17.10;99.70;;;;;;2111829;28;20032;-71
2023/05/27 05:19:01;;;;;;;16.77;6.80;;;17.10;99.20;;;;;;2112113;28;20024;-73
2023/05/27 05:20:08;;;;;;;15.50;6.40;;;17.10;99.10;;;;;;2112480;28;20074;-72